KCRX/CRX METAR and TAF weather

Enter ICAO airport designator
Station Type Date Time Source
KCRX METAR 2019/02/23 16:55 UTC NOAA

KCRX 231655Z AUTO 13006KT 1/2SM FG OVC003 16/16 A2989 RMK AO2 P0001


Station Type Date Time Source
KCRX Decoded METAR 2019/02/23 16:55 UTC NOAA

Station name not available
Feb 23, 2019 - 11:55 AM EST / 2019.02.23 1655 UTC
Wind: from the SE (130 degrees) at 7 MPH (6 KT):0
Visibility: 1/2 mile(s):0
Sky conditions: overcast
Weather: fog
Precipitation last hour: 0.01 inches
Temperature: 60 F (16 C)
Dew Point: 60 F (16 C)
Relative Humidity: 100%
Pressure (altimeter): 29.89 in. Hg (1012 hPa)
ob: KCRX 231655Z AUTO 13006KT 1/2SM FG OVC003 16/16 A2989 RMK AO2 P0001
cycle: 17

Station Type Date Time Source
KCRX TAF UTC NOAA

Error!


Example: see airport list